Oriental Freesia — ZGCD7 — position and weather

sailwx.info

Track history (hours):
 
Tides and Currents Weather Stations Pressure Air Temp Water Temp Dewpoint Dewpoint Depression Visibility Wind Speed Wind Dir Waves Ship Positions

Oriental Freesia

Last reported at 2014-Jul-16 14:33 UTC. Time now 2014-Aug-02 06:42 UTC.
Position N 31°47' E 031°55'.
Warning: this ship's position is 16 days out of date.

Length 134 m; draft 9.1 m.

Type: Ship (hazmat cat A). MMSI: 319349000.

Date/timePositionNaut miles runAvg speedWind from/ knotsBaromVisibWave heightAir tempDewpointWater temp
2014-Jul-16 14:33N 31°47' E 031°55'1512.2
2014-Jul-16 13:17N 31°57' E 031°41'811.7
2014-Jul-16 12:33N 32°01' E 031°33'1211.9
2014-Jul-16 11:33N 32°05' E 031°19'1212.0
2014-Jul-16 10:33N 32°09' E 031°06'1211.8
2014-Jul-16 09:33N 32°12' E 030°52'  
2014-Jul-09 05:32N 36°18' W 008°24'1111.2
2014-Jul-09 04:33N 36°21' W 008°37'1110.8
2014-Jul-09 03:33N 36°24' W 008°50'1110.6
2014-Jul-09 02:33N 36°26' W 009°03'1110.6
2014-Jul-09 01:33N 36°29' W 009°15'1010.4
2014-Jul-09 00:33N 36°35' W 009°26'1211.4
2014-Jul-08 23:32N 36°43' W 009°35'1211.1
2014-Jul-08 22:29N 36°54' W 009°40'1211.7
2014-Jul-08 21:27N 37°06' W 009°44'1211.6
2014-Jul-08 20:23N 37°18' W 009°47'1011.6
2014-Jul-08 19:31N 37°28' W 009°50'1211.7
2014-Jul-08 18:29N 37°40' W 009°54'1111.6
2014-Jul-08 17:33N 37°50' W 009°56'1211.5
2014-Jul-08 16:33N 38°02' W 009°60'  
Track history (hours):
 
Tides and Currents Weather Stations Pressure Air Temp Water Temp Dewpoint Dewpoint Depression Visibility Wind Speed Wind Dir Waves Ship Positions

Oriental Freesia

Last reported at 2014-Jul-16 14:33 UTC. Time now 2014-Aug-02 06:42 UTC.
Position N 31°47' E 031°55'.
Warning: this ship's position is 16 days out of date.

Length 134 m; draft 9.1 m.

Type: Ship (hazmat cat A). MMSI: 319349000.

Date/timePositionNaut miles runAvg speedWind from/ knotsBaromVisibWave heightAir tempDewpointWater temp
2014-Jul-16 14:33N 31°47' E 031°55'1512.2
2014-Jul-16 13:17N 31°57' E 031°41'811.7
2014-Jul-16 12:33N 32°01' E 031°33'1211.9
2014-Jul-16 11:33N 32°05' E 031°19'1212.0
2014-Jul-16 10:33N 32°09' E 031°06'1211.8
2014-Jul-16 09:33N 32°12' E 030°52'  
2014-Jul-09 05:32N 36°18' W 008°24'1111.2
2014-Jul-09 04:33N 36°21' W 008°37'1110.8
2014-Jul-09 03:33N 36°24' W 008°50'1110.6
2014-Jul-09 02:33N 36°26' W 009°03'1110.6
2014-Jul-09 01:33N 36°29' W 009°15'1010.4
2014-Jul-09 00:33N 36°35' W 009°26'1211.4
2014-Jul-08 23:32N 36°43' W 009°35'1211.1
2014-Jul-08 22:29N 36°54' W 009°40'1211.7
2014-Jul-08 21:27N 37°06' W 009°44'1211.6
2014-Jul-08 20:23N 37°18' W 009°47'1011.6
2014-Jul-08 19:31N 37°28' W 009°50'1211.7
2014-Jul-08 18:29N 37°40' W 009°54'1111.6
2014-Jul-08 17:33N 37°50' W 009°56'1211.5
2014-Jul-08 16:33N 38°02' W 009°60'  

Dump ship's entire track history